Time;durP1;ratioP1;P1;durP2;ratioP2;P2;SDS_P1;SDS_P2;PMS_P1;PMS_P2;Temp;Humidity;BMP_temperature;BMP_pressure;BME280_temperature;BME280_humidity;BME280_pressure;Samples;Min_cycle;Max_cycle;Signal;HPM_P1;HPM_P2
2021/07/29 00:00:03;;;;;;;25.90;8.38;;;;;;;22.42;75.27;99867.42;1715140;83;21292;-89
2021/07/29 00:03:08;;;;;;;30.32;8.83;;;;;;;22.42;75.38;99867.42;1715273;83;21283;-76
2021/07/29 00:06:22;;;;;;;30.32;9.78;;;;;;;22.41;75.42;99862.97;1714588;83;21205;-90
2021/07/29 00:09:28;;;;;;;36.17;8.40;;;;;;;22.41;75.51;99856.00;1715489;83;21315;-76
2021/07/29 00:12:35;;;;;;;32.23;9.28;;;;;;;22.41;75.60;99852.38;1714065;83;21735;-76
2021/07/29 00:15:43;;;;;;;23.87;8.23;;;;;;;22.37;75.65;99857.63;1714036;83;21772;-90
2021/07/29 00:19:04;;;;;;;26.50;8.10;;;;;;;22.37;75.64;99854.01;1715221;83;21276;-91
2021/07/29 00:22:10;;;;;;;40.73;9.18;;;;;;;22.35;75.50;99854.84;1714051;83;21300;-89
2021/07/29 00:25:16;;;;;;;26.52;8.83;;;;;;;22.34;75.45;99853.97;1713863;83;21184;-89
2021/07/29 00:28:21;;;;;;;26.70;8.48;;;;;;;22.29;75.51;99854.48;1713487;83;21315;-76
2021/07/29 00:31:26;;;;;;;23.45;7.78;;;;;;;22.24;75.72;99853.88;1714604;83;21326;-90
2021/07/29 00:34:31;;;;;;;29.02;7.80;;;;;;;22.22;75.92;99862.23;1715493;83;21284;-90
2021/07/29 00:37:42;;;;;;;23.85;7.83;;;;;;;22.18;76.16;99857.17;1714319;83;21200;-76
2021/07/29 00:40:49;;;;;;;29.98;8.83;;;;;;;22.16;76.23;99862.70;1714959;83;21850;-77
2021/07/29 00:43:55;;;;;;;17.62;8.13;;;;;;;22.14;76.28;99862.98;1715205;83;21287;-76
2021/07/29 00:46:59;;;;;;;21.50;7.92;;;;;;;22.11;76.42;99864.92;1696571;83;21336;-90
2021/07/29 00:50:04;;;;;;;20.15;7.65;;;;;;;22.09;76.65;99857.33;1715395;83;21180;-90
2021/07/29 00:53:13;;;;;;;31.10;8.05;;;;;;;22.06;76.91;99854.22;1696651;83;21312;-76
2021/07/29 00:56:18;;;;;;;25.23;8.13;;;;;;;21.99;77.27;99854.45;1715321;83;21862;-90
2021/07/29 00:59:23;;;;;;;37.65;7.95;;;;;;;21.94;77.58;99844.66;1715276;83;21213;-76
2021/07/29 01:02:28;;;;;;;23.47;8.88;;;;;;;21.90;77.86;99840.15;1715340;83;21291;-77
2021/07/29 01:05:35;;;;;;;23.77;8.33;;;;;;;21.88;78.27;99840.14;1715023;83;21334;-76
2021/07/29 01:08:40;;;;;;;31.62;8.05;;;;;;;21.89;78.71;99834.86;1714212;83;21856;-89
2021/07/29 01:11:49;;;;;;;28.60;7.58;;;;;;;21.90;79.00;99835.14;1714034;83;21774;-90
2021/07/29 01:14:56;;;;;;;29.00;8.48;;;;;;;21.88;79.04;99840.98;1715476;83;21279;-90
2021/07/29 01:18:06;;;;;;;20.55;8.55;;;;;;;21.87;79.30;99841.22;1714804;83;21284;-90
2021/07/29 01:21:11;;;;;;;28.52;8.50;;;;;;;21.85;79.61;99840.09;1715498;83;21881;-89
2021/07/29 01:24:16;;;;;;;31.12;8.15;;;;;;;21.86;79.73;99836.76;1715506;83;21295;-90
2021/07/29 01:27:30;;;;;;;17.75;7.53;;;;;;;21.85;79.82;99833.14;1712722;83;21318;-76
2021/07/29 01:30:33;;;;;;;30.50;7.60;;;;;;;21.81;79.78;99828.36;1665388;86;21352;-89
2021/07/29 01:33:39;;;;;;;28.85;7.60;;;;;;;21.73;79.96;99828.26;1665662;86;21861;-76
2021/07/29 01:36:45;;;;;;;33.80;7.67;;;;;;;21.68;80.07;99832.38;1664558;86;21229;-90
2021/07/29 01:39:50;;;;;;;32.48;7.17;;;;;;;21.57;80.37;99826.42;1665685;86;21300;-91
2021/07/29 01:42:56;;;;;;;22.58;7.53;;;;;;;21.49;80.88;99829.65;1664345;86;21336;-90
2021/07/29 01:46:01;;;;;;;22.17;7.67;;;;;;;21.44;81.24;99834.05;1665295;86;21249;-90
2021/07/29 01:49:08;;;;;;;23.18;7.62;;;;;;;21.42;81.59;99843.77;1664289;86;21861;-89
2021/07/29 01:52:13;;;;;;;24.90;7.85;;;;;;;21.39;81.79;99854.85;1664397;86;21396;-77
2021/07/29 01:55:19;;;;;;;25.05;8.00;;;;;;;21.38;82.04;99842.05;1665428;86;21790;-77
2021/07/29 01:58:25;;;;;;;26.30;7.92;;;;;;;21.40;82.38;99840.39;1665449;86;21224;-90
2021/07/29 02:01:31;;;;;;;33.50;7.35;;;;;;;21.38;82.44;99835.65;1665037;86;21333;-90
2021/07/29 02:04:37;;;;;;;23.25;7.28;;;;;;;21.32;82.72;99843.64;1665821;86;21185;-87
2021/07/29 02:07:43;;;;;;;37.48;8.10;;;;;;;21.25;83.17;99838.77;1665663;86;21293;-91
2021/07/29 02:10:50;;;;;;;19.77;8.25;;;;;;;21.18;83.56;99834.80;1664429;86;21351;-91
2021/07/29 02:13:57;;;;;;;19.37;7.60;;;;;;;21.14;84.11;99833.08;1665489;86;21300;-76
2021/07/29 02:17:04;;;;;;;17.12;7.42;;;;;;;21.11;84.43;99834.14;1664365;86;21344;-77
2021/07/29 02:20:10;;;;;;;23.02;7.58;;;;;;;21.13;84.77;99838.36;1664395;86;21287;-77
2021/07/29 02:23:16;;;;;;;22.15;7.95;;;;;;;21.19;84.96;99836.48;1664221;86;21793;-89
2021/07/29 02:26:22;;;;;;;26.57;8.43;;;;;;;21.21;85.13;99839.00;1664946;86;21370;-77
2021/07/29 02:29:27;;;;;;;30.92;8.23;;;;;;;21.26;85.40;99846.02;1684047;83;21327;-77
2021/07/29 02:32:32;;;;;;;30.35;8.88;;;;;;;21.34;85.39;99840.05;1715239;83;21366;-91
2021/07/29 02:35:37;;;;;;;26.68;8.40;;;;;;;21.42;85.11;99838.20;1715022;83;21343;-77
2021/07/29 02:38:44;;;;;;;29.60;9.05;;;;;;;21.49;84.94;99833.83;1714864;83;21299;-77
2021/07/29 02:41:49;;;;;;;36.73;10.82;;;;;;;21.58;84.80;99848.96;1714224;83;21303;-77
2021/07/29 02:44:55;;;;;;;53.87;15.58;;;;;;;21.71;84.42;99852.74;1715285;83;21281;-77
2021/07/29 02:47:59;;;;;;;45.17;14.43;;;;;;;21.86;83.90;99859.03;1715233;83;21287;-76
2021/07/29 02:51:05;;;;;;;35.58;11.00;;;;;;;22.05;83.54;99853.94;1713963;83;21208;-89
2021/07/29 02:54:11;;;;;;;34.88;9.95;;;;;;;22.29;82.80;99851.14;1715131;83;21299;-90
2021/07/29 02:57:18;;;;;;;32.13;11.22;;;;;;;22.54;82.13;99861.69;1714135;83;21188;-74
2021/07/29 03:00:24;;;;;;;44.93;13.90;;;;;;;22.83;81.03;99853.83;1715201;83;21506;-75
2021/07/29 03:03:29;;;;;;;48.33;15.45;;;;;;;23.03;79.85;99853.14;1715509;83;21702;-88
2021/07/29 03:06:34;;;;;;;34.63;12.23;;;;;;;23.12;78.94;99852.92;1715288;83;21204;-75
2021/07/29 03:09:40;;;;;;;34.10;9.83;;;;;;;23.18;78.40;99858.80;1714730;83;21316;-91
2021/07/29 03:12:40;;;;;;;38.30;9.33;;;;;;;23.25;77.84;99863.33;1714204;83;21180;-77
2021/07/29 03:15:46;;;;;;;29.25;9.33;;;;;;;23.29;77.59;99854.14;1713741;83;21319;-90
2021/07/29 03:18:53;;;;;;;32.63;7.47;;;;;;;23.42;77.24;99858.38;1715179;83;21893;-77
2021/07/29 03:21:58;;;;;;;19.50;6.37;;;;;;;23.55;76.96;99864.85;1714306;83;21868;-90
2021/07/29 03:25:05;;;;;;;16.77;6.72;;;;;;;23.66;76.51;99866.59;1715415;83;21820;-77
2021/07/29 03:28:11;;;;;;;17.05;6.58;;;;;;;23.74;76.11;99860.22;1714960;83;21852;-76
2021/07/29 03:31:17;;;;;;;13.43;6.40;;;;;;;23.83;75.83;99868.34;1697713;83;21170;-78
2021/07/29 03:34:21;;;;;;;18.50;6.30;;;;;;;23.91;75.61;99864.47;1692218;85;21174;-77
2021/07/29 03:37:27;;;;;;;19.15;7.30;;;;;;;24.07;75.34;99864.50;1692126;85;21293;-90
2021/07/29 03:40:32;;;;;;;27.00;7.53;;;;;;;24.24;74.75;99870.69;1691996;85;21352;-91
2021/07/29 03:43:38;;;;;;;13.10;6.12;;;;;;;24.42;74.32;99863.19;1691543;85;21205;-90
2021/07/29 03:46:43;;;;;;;14.23;5.95;;;;;;;24.57;73.84;99855.36;1690954;85;21269;-91
2021/07/29 03:49:48;;;;;;;20.37;6.60;;;;;;;24.68;73.42;99857.02;1690924;85;21395;-77
2021/07/29 03:52:53;;;;;;;18.20;6.53;;;;;;;24.74;73.37;99853.09;1690714;85;21316;-76
2021/07/29 03:55:58;;;;;;;20.40;6.95;;;;;;;24.81;73.40;99856.19;1691758;85;21755;-90
2021/07/29 03:59:05;;;;;;;16.20;5.83;;;;;;;24.88;73.39;99851.13;1691407;85;21819;-90
2021/07/29 04:02:14;;;;;;;14.58;5.85;;;;;;;24.94;73.18;99849.46;1691013;85;21324;-77
2021/07/29 04:05:20;;;;;;;17.52;5.83;;;;;;;25.03;73.11;99845.53;1692041;85;21253;-77
2021/07/29 04:08:27;;;;;;;18.15;6.25;;;;;;;25.08;73.29;99841.89;1690651;84;21237;-76
2021/07/29 04:11:33;;;;;;;16.00;6.20;;;;;;;25.16;73.10;99844.11;1690788;85;21194;-90
2021/07/29 04:14:40;;;;;;;13.50;6.22;;;;;;;25.26;72.97;99839.05;1691487;85;21186;-91
2021/07/29 04:17:47;;;;;;;16.23;6.03;;;;;;;25.38;72.71;99839.58;1691695;85;22157;-76
2021/07/29 04:20:53;;;;;;;17.82;6.90;;;;;;;25.47;72.24;99845.69;1691378;85;21368;-90
2021/07/29 04:23:59;;;;;;;18.73;7.78;;;;;;;25.65;71.96;99848.98;1692078;85;21288;-90
2021/07/29 04:27:05;;;;;;;17.12;6.55;;;;;;;25.80;71.61;99850.34;1690601;85;21214;-76
2021/07/29 04:30:10;;;;;;;22.20;6.33;;;;;;;25.99;70.98;99847.14;1692170;85;21206;-76
2021/07/29 04:33:15;;;;;;;21.52;5.95;;;;;;;26.13;70.55;99854.34;1692044;85;21166;-76
2021/07/29 04:36:21;;;;;;;19.20;6.08;;;;;;;26.33;70.13;99860.37;1692049;85;21791;-90
2021/07/29 04:39:27;;;;;;;22.15;6.15;;;;;;;26.55;69.33;99866.14;1692106;85;21280;-90
2021/07/29 04:42:33;;;;;;;20.40;5.42;;;;;;;26.71;69.00;99855.04;1692267;85;21905;-90
2021/07/29 04:45:39;;;;;;;10.18;5.42;;;;;;;26.86;68.64;99838.63;1691995;85;21360;-83
2021/07/29 04:48:44;;;;;;;18.10;6.50;;;;;;;27.05;67.97;99839.55;1692127;85;21315;-77
2021/07/29 04:51:51;;;;;;;20.30;5.40;;;;;;;27.15;67.84;99839.50;1690425;85;21323;-77
2021/07/29 04:54:57;;;;;;;17.50;5.60;;;;;;;27.33;67.38;99835.63;1691797;85;21703;-77
2021/07/29 04:58:03;;;;;;;15.70;5.92;;;;;;;27.38;67.06;99832.75;1688009;84;21347;-90
2021/07/29 05:01:12;;;;;;;16.87;6.08;;;;;;;27.42;67.08;99827.64;1715081;82;21204;-91
2021/07/29 05:04:18;;;;;;;12.45;5.40;;;;;;;27.50;67.01;99834.02;1712798;83;21263;-77
2021/07/29 05:07:25;;;;;;;20.23;6.25;;;;;;;27.65;67.04;99832.98;1715264;82;21214;-77
2021/07/29 05:10:31;;;;;;;15.15;5.72;;;;;;;27.76;66.78;99832.33;1723401;82;21255;-77
2021/07/29 05:13:40;;;;;;;18.57;5.45;;;;;;;27.92;66.60;99831.53;1714120;82;21267;-90
2021/07/29 05:16:44;;;;;;;19.10;5.62;;;;;;;28.11;66.11;99832.36;1709019;82;21231;-91
2021/07/29 05:19:49;;;;;;;19.73;5.78;;;;;;;28.32;65.42;99831.47;1718738;82;21142;-77
2021/07/29 05:22:54;;;;;;;14.85;5.75;;;;;;;28.48;64.83;99832.10;1724715;82;21284;-90
2021/07/29 05:25:59;;;;;;;16.07;5.42;;;;;;;28.63;64.01;99834.64;1725745;82;21762;-77
2021/07/29 05:29:04;;;;;;;12.75;4.95;;;;;;;28.66;64.20;99825.60;1730974;82;21162;-77
2021/07/29 05:32:12;;;;;;;12.50;6.03;;;;;;;28.74;63.61;99821.22;1698517;84;21339;-77
2021/07/29 05:35:18;;;;;;;11.55;5.62;;;;;;;28.84;63.14;99825.83;1706096;84;21333;-89
2021/07/29 05:38:24;;;;;;;17.12;6.08;;;;;;;28.99;63.23;99822.79;1705996;84;21169;-90
2021/07/29 05:41:30;;;;;;;16.00;7.58;;;;;;;29.06;62.59;99812.52;1696970;84;21196;-88
2021/07/29 05:44:36;;;;;;;21.87;7.05;;;;;;;29.14;62.45;99814.04;1699924;84;22159;-76
2021/07/29 05:47:45;;;;;;;20.02;6.72;;;;;;;29.25;62.08;99819.72;1702765;84;21137;-89
2021/07/29 05:50:56;;;;;;;17.00;6.45;;;;;;;29.31;61.90;99809.75;1702552;84;21829;-89
2021/07/29 05:54:00;;;;;;;19.02;6.05;;;;;;;29.40;61.62;99813.51;1699997;84;21174;-90
2021/07/29 05:57:05;;;;;;;22.32;5.60;;;;;;;29.57;61.10;99825.02;1704909;84;21887;-90
2021/07/29 06:00:12;;;;;;;22.42;6.00;;;;;;;29.57;61.10;99825.02;1692567;84;21546;-76
2021/07/29 06:03:17;;;;;;;13.98;5.22;;;;;;;29.66;60.96;99806.22;1703310;84;21837;-89
2021/07/29 06:06:23;;;;;;;19.55;5.62;;;;;;;29.81;61.06;99829.58;1695646;84;21331;-76
2021/07/29 06:09:28;;;;;;;21.12;6.33;;;;;;;29.90;61.13;99831.91;1689168;84;21229;-90
2021/07/29 06:12:35;;;;;;;16.67;5.65;;;;;;;29.96;60.66;99830.64;1705432;84;21306;-76
2021/07/29 06:15:41;;;;;;;18.23;5.67;;;;;;;30.05;60.51;99835.20;1698652;84;21352;-90
2021/07/29 06:18:58;;;;;;;20.85;5.83;;;;;;;30.07;60.40;99831.26;1705372;84;21275;-89
2021/07/29 06:21:56;;;;;;;19.37;5.83;;;;;;;30.08;60.35;99826.70;1704605;84;21770;-89
2021/07/29 06:25:06;;;;;;;17.23;6.72;;;;;;;30.22;59.95;99826.11;1706429;84;21365;-90
2021/07/29 06:28:13;;;;;;;24.52;6.37;;;;;;;30.41;59.92;99818.87;1705887;84;21282;-76
2021/07/29 06:31:19;;;;;;;18.92;5.42;;;;;;;30.57;59.41;99820.72;1702830;84;21283;-77
2021/07/29 06:34:24;;;;;;;24.23;5.97;;;;;;;30.67;59.25;99815.39;1712420;82;21308;-89
2021/07/29 06:37:30;;;;;;;27.42;6.00;;;;;;;30.75;59.08;99809.84;1698335;82;21296;-77
2021/07/29 06:40:35;;;;;;;18.48;5.15;;;;;;;30.80;58.94;99815.34;1714048;82;21299;-90
2021/07/29 06:43:41;;;;;;;16.52;5.17;;;;;;;30.88;58.95;99810.09;1710993;82;21721;-77
2021/07/29 06:46:46;;;;;;;22.50;5.22;;;;;;;30.96;59.04;99810.69;1706675;84;21277;-77
2021/07/29 06:49:53;;;;;;;13.25;4.72;;;;;;;31.08;57.97;99808.11;1713518;82;21260;-90
2021/07/29 06:52:57;;;;;;;13.28;4.72;;;;;;;31.15;57.55;99800.56;1710665;83;21275;-89
2021/07/29 06:56:05;;;;;;;12.10;4.08;;;;;;;31.09;57.79;99798.47;1707296;82;21991;-77
2021/07/29 06:59:11;;;;;;;12.53;4.28;;;;;;;31.13;57.90;99786.78;1703190;82;21204;-77
2021/07/29 07:02:18;;;;;;;14.60;3.95;;;;;;;31.21;56.97;99790.80;1704322;82;21300;-89
2021/07/29 07:05:23;;;;;;;15.23;4.53;;;;;;;31.17;56.83;99793.44;1713386;82;21208;-89
2021/07/29 07:08:28;;;;;;;15.43;4.80;;;;;;;31.19;56.77;99786.88;1720382;82;21216;-89
2021/07/29 07:11:34;;;;;;;12.58;4.17;;;;;;;31.29;56.91;99778.16;1707113;82;21857;-77
2021/07/29 07:14:43;;;;;;;9.35;4.45;;;;;;;31.37;56.38;99777.92;1706873;82;21347;-90
2021/07/29 07:17:49;;;;;;;11.10;4.60;;;;;;;31.27;56.87;99784.70;1709538;82;21749;-77
2021/07/29 07:20:55;;;;;;;14.10;4.40;;;;;;;31.18;57.50;99781.56;1728459;82;21157;-90
2021/07/29 07:24:01;;;;;;;12.78;4.62;;;;;;;31.23;56.23;99779.42;1717035;82;21274;-77
2021/07/29 07:27:07;;;;;;;18.32;4.53;;;;;;;31.37;56.43;99776.50;1706394;82;21655;-78
2021/07/29 07:30:14;;;;;;;18.25;4.58;;;;;;;31.56;56.14;99766.33;1716682;82;21333;-77
2021/07/29 07:33:19;;;;;;;13.18;4.95;;;;;;;31.71;56.00;99763.05;1710400;82;21924;-77
2021/07/29 07:36:25;;;;;;;20.05;5.15;;;;;;;31.75;55.45;99769.68;1706858;83;21323;-77
2021/07/29 07:39:31;;;;;;;17.60;4.17;;;;;;;31.84;55.33;99767.48;1710379;82;21558;-89
2021/07/29 07:42:37;;;;;;;13.13;5.03;;;;;;;31.98;54.83;99763.33;1706743;84;21348;-89
2021/07/29 07:45:43;;;;;;;12.10;4.12;;;;;;;32.12;54.94;99768.82;1708873;84;21585;-81
2021/07/29 07:48:49;;;;;;;13.80;4.30;;;;;;;32.24;54.14;99764.75;1707082;84;21271;-90
2021/07/29 07:51:54;;;;;;;11.25;4.40;;;;;;;32.36;53.42;99766.89;1707375;83;21182;-89
2021/07/29 07:55:00;;;;;;;15.08;4.45;;;;;;;32.44;53.47;99763.84;1703480;84;21323;-77
2021/07/29 07:58:05;;;;;;;14.93;4.60;;;;;;;32.58;53.48;99764.48;1688523;84;21342;-90
2021/07/29 08:01:14;;;;;;;16.23;4.50;;;;;;;32.69;52.41;99764.35;1713196;82;21145;-89
2021/07/29 08:04:18;;;;;;;;;;;;;;;32.80;51.82;99769.92;1719319;82;21551;-77
2021/07/29 08:07:24;;;;;;;10.58;3.80;;;;;;;32.85;51.90;99767.49;1716084;82;20233;-77
2021/07/29 08:10:31;;;;;;;12.50;4.60;;;;;;;32.86;51.26;99764.07;1714527;82;21229;-77
2021/07/29 08:13:36;;;;;;;19.42;4.60;;;;;;;32.80;51.25;99762.02;1725978;82;21283;-90
2021/07/29 08:16:44;;;;;;;16.87;4.72;;;;;;;32.81;51.50;99762.25;1709983;82;21291;-77
2021/07/29 08:19:50;;;;;;;17.15;4.37;;;;;;;32.91;51.52;99756.84;1721326;82;21295;-77
2021/07/29 08:22:55;;;;;;;12.95;4.35;;;;;;;32.96;50.97;99759.48;1727820;82;21278;-89
2021/07/29 08:26:01;;;;;;;21.23;5.00;;;;;;;33.00;51.12;99747.72;1729551;82;21375;-90
2021/07/29 08:29:06;;;;;;;17.80;4.28;;;;;;;33.01;51.06;99743.13;1720190;82;21798;-90
2021/07/29 08:32:12;;;;;;;16.97;4.50;;;;;;;33.06;51.37;99746.35;1717834;82;21137;-77
2021/07/29 08:35:18;;;;;;;13.75;4.78;;;;;;;33.16;50.54;99757.30;1737598;82;21331;-90
2021/07/29 08:38:23;;;;;;;13.30;4.95;;;;;;;33.21;49.90;99748.59;1724684;82;21559;-77
2021/07/29 08:41:28;;;;;;;26.30;5.45;;;;;;;33.26;49.58;99744.74;1716898;82;21177;-90
2021/07/29 08:44:34;;;;;;;21.00;5.08;;;;;;;33.31;49.54;99756.73;1705975;84;21775;-90
2021/07/29 08:47:40;;;;;;;13.00;4.83;;;;;;;33.31;49.32;99749.66;1690482;85;21321;-77
2021/07/29 08:50:46;;;;;;;20.17;4.70;;;;;;;33.31;49.68;99755.33;1694688;82;21352;-89
2021/07/29 08:53:52;;;;;;;15.90;4.42;;;;;;;33.37;49.36;99757.37;1726491;82;21197;-89
2021/07/29 08:56:57;;;;;;;17.00;4.60;;;;;;;33.38;48.54;99751.94;1693279;82;21160;-89
2021/07/29 09:00:04;;;;;;;11.68;4.80;;;;;;;33.45;48.45;99754.25;1730668;82;21157;-89
2021/07/29 09:03:27;;;;;;;13.88;4.50;;;;;;;33.48;47.55;99749.33;1719201;82;21263;-89
2021/07/29 09:06:34;;;;;;;15.40;4.28;;;;;;;33.51;47.48;99746.64;1741552;82;21339;-89
2021/07/29 09:09:53;;;;;;;14.68;4.95;;;;;;;33.55;47.62;99747.63;1715420;82;21271;-77
2021/07/29 09:13:21;;;;;;;23.75;5.65;;;;;;;33.53;46.97;99736.37;1708183;82;21276;-77
2021/07/29 09:16:28;;;;;;;16.30;3.92;;;;;;;33.45;47.17;99746.58;1685374;84;21912;-89
2021/07/29 09:19:42;;;;;;;11.70;4.92;;;;;;;33.44;47.29;99738.42;1728184;82;21579;-77
2021/07/29 09:22:52;;;;;;;12.65;5.53;;;;;;;33.45;47.52;99738.66;1721821;82;21334;-77
2021/07/29 09:26:09;;;;;;;18.65;5.10;;;;;;;33.50;47.10;99735.63;1708956;82;21323;-77
2021/07/29 09:29:25;;;;;;;11.68;4.65;;;;;;;33.53;47.10;99732.94;1717601;82;21160;-77
2021/07/29 09:32:30;;;;;;;22.45;5.22;;;;;;;33.54;46.37;99730.94;1722302;82;21273;-90
2021/07/29 09:35:58;;;;;;;20.92;5.55;;;;;;;33.51;46.17;99730.22;1718055;82;21848;-89
2021/07/29 09:39:32;;;;;;;22.27;6.03;;;;;;;33.50;46.01;99725.70;1717580;82;21808;-78
2021/07/29 09:42:37;;;;;;;13.18;5.28;;;;;;;33.53;45.95;99720.78;1681562;83;21274;-89
2021/07/29 09:45:43;;;;;;;17.20;4.87;;;;;;;33.62;45.75;99713.63;1685428;83;22280;-77
2021/07/29 09:48:52;;;;;;;12.65;6.00;;;;;;;33.74;45.81;99710.87;1656502;85;21299;-88
2021/07/29 09:51:58;;;;;;;13.78;5.90;;;;;;;33.84;45.96;99710.46;1684934;83;21389;-88
2021/07/29 09:55:03;;;;;;;18.00;5.75;;;;;;;33.91;45.19;99705.05;1677724;84;21683;-88
2021/07/29 09:58:08;;;;;;;16.37;5.00;;;;;;;33.98;45.13;99704.53;1657166;86;21179;-89
2021/07/29 10:01:13;;;;;;;14.53;5.20;;;;;;;34.01;45.03;99702.40;1668785;85;21248;-89
2021/07/29 10:04:18;;;;;;;21.90;5.83;;;;;;;34.03;45.33;99699.47;1657360;85;21821;-88
2021/07/29 10:07:37;;;;;;;17.48;6.70;;;;;;;34.14;44.67;99703.29;1668272;84;21317;-87
2021/07/29 10:10:42;;;;;;;11.63;5.58;;;;;;;34.22;44.74;99702.38;1666340;84;21343;-77
2021/07/29 10:13:48;;;;;;;23.50;6.10;;;;;;;34.26;44.29;99699.09;1649605;85;21692;-88
2021/07/29 10:16:55;;;;;;;13.70;5.78;;;;;;;34.25;44.15;99688.33;1677314;83;21656;-77
2021/07/29 10:20:23;;;;;;;15.72;6.33;;;;;;;34.31;43.85;99688.34;1683086;83;21323;-88
2021/07/29 10:23:34;;;;;;;16.50;5.62;;;;;;;34.36;43.90;99688.71;1678464;83;22182;-86
2021/07/29 10:26:34;;;;;;;18.20;7.05;;;;;;;34.44;43.69;99683.53;1679943;83;21834;-88
2021/07/29 10:29:40;;;;;;;19.82;6.45;;;;;;;34.47;43.78;99677.16;1692138;83;22086;-88
2021/07/29 10:32:54;;;;;;;18.73;6.12;;;;;;;34.55;43.07;99665.48;1668599;85;21324;-89
2021/07/29 10:35:59;;;;;;;24.82;6.40;;;;;;;34.65;43.36;99659.93;1665038;85;21860;-77
2021/07/29 10:39:11;;;;;;;20.25;6.67;;;;;;;34.68;43.02;99654.38;1656586;85;21901;-89
2021/07/29 10:42:20;;;;;;;15.35;5.42;;;;;;;34.68;42.76;99647.88;1649340;85;21713;-77
2021/07/29 10:45:25;;;;;;;21.40;5.92;;;;;;;34.72;42.39;99645.36;1675333;83;21311;-89
2021/07/29 10:49:12;;;;;;;34.83;6.50;;;;;;;34.80;42.04;99640.77;1641211;84;21269;-88
2021/07/29 10:52:15;;;;;;;18.30;6.35;;;;;;;34.90;41.66;99632.36;1673385;84;21282;-77
2021/07/29 10:55:23;;;;;;;18.95;5.42;;;;;;;34.96;41.18;99631.81;1634823;86;21377;-77
2021/07/29 10:58:29;;;;;;;28.07;5.70;;;;;;;34.91;40.54;99628.33;1644350;85;21363;-88
2021/07/29 11:01:55;;;;;;;18.10;4.67;;;;;;;34.71;41.22;99623.01;1669092;84;21759;-87
2021/07/29 11:05:08;;;;;;;24.52;5.83;;;;;;;34.63;41.24;99602.64;1688103;84;21166;-89
2021/07/29 11:08:12;;;;;;;21.35;5.30;;;;;;;34.55;41.23;99603.02;1686440;84;21629;-89
2021/07/29 11:11:18;;;;;;;25.80;5.25;;;;;;;34.53;41.64;99586.91;1672208;84;21195;-77
2021/07/29 11:14:36;;;;;;;19.65;5.97;;;;;;;34.50;41.64;99578.52;1678734;85;21262;-87
2021/07/29 11:17:42;;;;;;;13.45;4.85;;;;;;;34.43;42.01;99578.23;1649591;86;21845;-88
2021/07/29 11:20:47;;;;;;;17.48;5.47;;;;;;;34.31;42.05;99573.39;1716450;82;21880;-88
2021/07/29 11:23:52;;;;;;;15.15;4.75;;;;;;;34.11;41.92;99581.37;1705070;82;21897;-88
2021/07/29 11:26:59;;;;;;;29.05;5.75;;;;;;;33.80;42.10;99577.02;1713174;82;21184;-78
2021/07/29 11:30:05;;;;;;;30.75;6.05;;;;;;;33.41;42.29;99574.13;1723667;82;21185;-78
2021/07/29 11:33:11;;;;;;;16.15;4.97;;;;;;;33.11;43.22;99574.77;1724859;82;21352;-89
2021/07/29 11:36:17;;;;;;;25.17;5.75;;;;;;;32.87;44.25;99573.16;1700685;82;21247;-77
2021/07/29 11:39:23;;;;;;;21.20;5.75;;;;;;;32.61;44.24;99581.23;1706389;82;21201;-89
2021/07/29 11:42:31;;;;;;;38.25;6.17;;;;;;;32.40;44.95;99575.48;1701490;84;21276;-88
2021/07/29 11:45:37;;;;;;;25.55;6.95;;;;;;;32.17;46.46;99581.95;1704843;84;21872;-89
2021/07/29 11:48:43;;;;;;;31.60;5.95;;;;;;;31.85;48.03;99593.25;1702046;83;21699;-86
2021/07/29 11:52:11;;;;;;;29.63;6.12;;;;;;;31.46;47.44;99580.14;1700231;84;21266;-75
2021/07/29 11:55:17;;;;;;;21.48;5.22;;;;;;;31.03;46.82;99578.10;1703285;84;21309;-88
2021/07/29 11:58:22;;;;;;;18.87;5.37;;;;;;;30.33;48.74;99564.35;1694565;84;21797;-78
2021/07/29 12:01:21;;;;;;;19.48;4.97;;;;;;;29.71;50.14;99564.33;1706012;84;21179;-88
2021/07/29 12:04:27;;;;;;;22.77;5.00;;;;;;;29.07;51.89;99548.96;1673405;86;21175;-77
2021/07/29 12:07:33;;;;;;;12.05;3.90;;;;;;;28.39;53.08;99575.20;1651788;87;21339;-88
2021/07/29 12:10:40;;;;;;;17.27;3.80;;;;;;;26.58;57.12;99606.95;1667665;86;21704;-77
2021/07/29 12:13:49;;;;;;;12.68;2.98;;;;;;;26.58;57.12;99606.95;1670630;86;21292;-78
2021/07/29 12:16:57;;;;;;;;;;;;;;;25.73;58.30;99565.49;1671707;84;21217;-87
2021/07/29 12:20:05;;;;;;;15.75;3.58;;;;;;;25.05;61.18;99521.53;1649645;86;20256;-87
2021/07/29 12:23:18;;;;;;;12.55;3.37;;;;;;;24.57;63.12;99492.50;1651363;87;21790;-88
2021/07/29 12:26:24;;;;;;;11.00;3.30;;;;;;;24.16;64.99;99513.61;1670623;86;21271;-87
2021/07/29 12:29:49;;;;;;;8.78;3.30;;;;;;;23.87;65.77;99587.42;1670690;86;21264;-81
2021/07/29 12:32:54;;;;;;;16.45;4.25;;;;;;;23.63;67.76;99638.78;1651029;87;21338;-76
2021/07/29 12:36:08;;;;;;;16.40;4.37;;;;;;;23.48;70.00;99664.73;1631244;87;21348;-76
2021/07/29 12:39:14;;;;;;;18.62;3.95;;;;;;;23.39;70.08;99692.34;1670728;86;21778;-76
2021/07/29 12:42:36;;;;;;;14.47;3.62;;;;;;;23.32;71.14;99753.12;1653140;85;21161;-76
2021/07/29 12:46:03;;;;;;;11.97;3.62;;;;;;;23.26;73.24;99681.70;1654996;86;21391;-76
2021/07/29 12:49:07;;;;;;;12.70;4.55;;;;;;;23.17;77.10;99686.13;1654632;86;21334;-76
2021/07/29 12:52:26;;;;;;;15.00;4.05;;;;;;;23.01;80.02;99682.47;1654519;85;21223;-88
2021/07/29 12:55:32;;;;;;;;;;;;;;;22.85;80.63;99691.83;1661040;85;21852;-77
2021/07/29 12:58:48;;;;;;;22.80;5.72;;;;;;;22.73;81.18;99673.12;1608607;86;20239;-77
2021/07/29 13:01:52;;;;;;;15.10;5.62;;;;;;;22.64;83.21;99650.50;1654451;85;21306;-77
2021/07/29 13:04:58;;;;;;;26.82;6.50;;;;;;;22.64;84.13;99648.55;1670197;85;21299;-77
2021/07/29 13:08:03;;;;;;;21.25;6.12;;;;;;;22.64;84.27;99626.25;1653206;85;21287;-77
2021/07/29 13:11:10;;;;;;;24.07;5.90;;;;;;;22.64;83.06;99604.51;1671656;85;21203;-86
2021/07/29 13:14:17;;;;;;;20.02;5.53;;;;;;;22.67;82.33;99610.34;1646882;86;21217;-77
2021/07/29 13:17:22;;;;;;;13.72;4.78;;;;;;;22.73;82.15;99615.97;1654736;85;21291;-77
2021/07/29 13:20:28;;;;;;;16.35;5.03;;;;;;;22.78;82.40;99630.77;1677370;85;21228;-86
2021/07/29 13:23:33;;;;;;;10.70;3.70;;;;;;;22.78;81.77;99650.28;1661848;85;21310;-76
2021/07/29 13:26:38;;;;;;;11.28;3.00;;;;;;;22.74;80.44;99665.87;1654195;85;21315;-87
2021/07/29 13:29:46;;;;;;;5.92;2.70;;;;;;;22.70;78.84;99710.16;1631894;86;21312;-88
2021/07/29 13:32:51;;;;;;;9.08;2.75;;;;;;;22.64;77.82;99745.27;1658039;85;21307;-88
2021/07/29 13:35:57;;;;;;;5.35;2.60;;;;;;;22.56;78.45;99749.94;1655050;86;21355;-77
2021/07/29 13:39:02;;;;;;;7.90;2.77;;;;;;;22.53;79.14;99703.92;1654490;85;21857;-87
2021/07/29 13:42:07;;;;;;;10.98;3.17;;;;;;;22.52;78.85;99678.56;1651759;85;21907;-77
2021/07/29 13:45:22;;;;;;;8.78;3.47;;;;;;;22.57;77.42;99690.30;1683234;85;21232;-86
2021/07/29 13:48:24;;;;;;;10.98;3.40;;;;;;;22.64;75.26;99693.70;1683352;85;21244;-77
2021/07/29 13:51:31;;;;;;;11.08;4.03;;;;;;;22.64;74.50;99708.47;1683140;85;21885;-77
2021/07/29 13:54:35;;;;;;;10.23;3.40;;;;;;;22.55;75.02;99710.64;1683172;85;21208;-88
2021/07/29 13:57:41;;;;;;;7.33;3.33;;;;;;;22.43;76.11;99693.55;1683345;85;21705;-88
2021/07/29 17:59:10;;;;;;;10.75;3.98;;;;;;;22.38;85.65;99609.11;1690987;84;21115;-78
2021/07/29 18:03:17;;;;;;;;;;;;;;;;;;;;;
2021/07/29 18:11:00;;;;;;;;;;;;;;;;;;;;;
2021/07/29 18:15:04;;;;;;;16.73;6.35;;;;;;;22.22;87.35;99585.09;1506703;94;21243;-90
2021/07/29 18:21:53;;;;;;;17.60;7.33;;;;;;;21.88;89.07;99568.16;1554397;91;20330;-77
2021/07/29 18:41:50;;;;;;;;;;;;;;;;;;;;;
2021/07/29 18:45:25;;;;;;;14.25;6.22;;;;;;;21.67;89.81;99558.81;1536147;93;21865;-77
2021/07/29 18:49:21;;;;;;;22.52;6.50;;;;;;;21.57;90.82;99558.73;1541793;93;21259;-92
2021/07/29 18:53:10;;;;;;;;;;;;;;;;;;;;;
2021/07/29 18:56:56;;;;;;;11.75;5.03;;;;;;;21.40;93.34;99563.59;1541502;93;21840;-90
2021/07/29 19:04:31;;;;;;;;;;;;;;;;;;;;;
2021/07/29 19:11:51;;;;;;;;;;;;;;;;;;;;;
2021/07/29 19:15:26;;;;;;;10.88;5.00;;;;;;;21.31;94.60;99577.70;1748911;82;21223;-82
2021/07/29 19:19:18;;;;;;;12.68;4.92;;;;;;;21.29;93.95;99572.94;1764600;81;21768;-82